createdAt,value
2017-10-01T00:00:56.441Z,57.2
2017-10-01T00:01:58.567Z,57.2
2017-10-01T00:03:00.695Z,57.2
2017-10-01T00:04:02.491Z,57.1
2017-10-01T00:05:04.619Z,57
2017-10-01T00:06:06.411Z,57.1
2017-10-01T00:07:08.202Z,57.5
2017-10-01T00:08:09.995Z,57.2
2017-10-01T00:09:11.787Z,57.1
2017-10-01T00:10:13.586Z,57.2
2017-10-01T00:11:15.711Z,57.3
2017-10-01T00:12:17.502Z,56.9
2017-10-01T00:13:18.937Z,57.2
2017-10-01T00:14:20.374Z,57.1
2017-10-01T00:15:22.162Z,57.2
2017-10-01T00:16:23.965Z,57
2017-10-01T00:17:25.067Z,57.2
2017-10-01T00:18:26.860Z,57
2017-10-01T00:19:28.986Z,57.1
2017-10-01T00:20:30.109Z,57.5
2017-10-01T00:21:32.252Z,57.1
2017-10-01T00:22:34.380Z,57.2
2017-10-01T00:23:36.506Z,57.5
2017-10-01T00:24:37.631Z,57
2017-10-01T00:25:39.394Z,57.1
2017-10-01T00:26:41.186Z,57.2
2017-10-01T00:27:42.975Z,57.2
2017-10-01T00:28:44.769Z,57
2017-10-01T00:29:45.873Z,57
2017-10-01T00:30:48.001Z,57
2017-10-01T00:31:49.803Z,57
2017-10-01T00:32:51.259Z,57.2
2017-10-01T00:33:53.387Z,57
2017-10-01T00:34:55.158Z,57
2017-10-01T00:35:57.283Z,57.1
2017-10-01T00:36:59.072Z,56.9
2017-10-01T00:38:00.864Z,57
2017-10-01T00:39:02.302Z,57
2017-10-01T00:40:04.433Z,57.2
2017-10-01T00:41:06.231Z,57
2017-10-01T00:42:08.365Z,57
2017-10-01T00:43:10.136Z,56.9
2017-10-01T00:44:11.569Z,57
2017-10-01T00:45:13.699Z,57
2017-10-01T00:46:15.493Z,56.9
2017-10-01T00:47:16.927Z,56.9
2017-10-01T00:48:19.052Z,56.9
2017-10-01T00:49:21.178Z,57.3
2017-10-01T00:50:22.978Z,57
2017-10-01T00:51:25.104Z,57
2017-10-01T00:52:27.230Z,56.9
2017-10-01T00:53:29.023Z,57
2017-10-01T00:54:30.814Z,57
2017-10-01T00:55:32.940Z,56.9
2017-10-01T00:56:35.078Z,56.9
2017-10-01T00:57:36.864Z,57
2017-10-01T00:58:38.627Z,57
2017-10-01T00:59:40.421Z,56.9
2017-10-01T01:00:42.217Z,57.1
2017-10-01T01:01:44.012Z,56.9
2017-10-01T01:02:45.470Z,56.9
2017-10-01T01:03:47.265Z,57.3
2017-10-01T01:04:49.033Z,57
2017-10-01T01:05:50.468Z,57
2017-10-01T01:06:52.258Z,56.9
2017-10-01T01:07:54.065Z,57
2017-10-01T01:08:55.491Z,57
2017-10-01T01:09:57.278Z,56.8
2017-10-01T01:10:59.068Z,57
2017-10-01T01:12:00.192Z,56.7
2017-10-01T01:13:01.984Z,57
2017-10-01T01:14:04.110Z,57
2017-10-01T01:15:05.902Z,57
2017-10-01T01:16:07.693Z,57
2017-10-01T01:17:09.821Z,57
2017-10-01T01:18:11.257Z,56.8
2017-10-01T01:19:13.048Z,56.8
2017-10-01T01:20:15.175Z,56.8
2017-10-01T01:21:17.306Z,56.7
2017-10-01T01:22:19.429Z,57.2
2017-10-01T01:23:21.223Z,56.8
2017-10-01T01:24:23.352Z,56.7
2017-10-01T01:25:24.465Z,56.8
2017-10-01T01:26:26.255Z,56.7
2017-10-01T01:27:28.381Z,56.8
2017-10-01T01:28:30.170Z,57
2017-10-01T01:29:31.937Z,56.8
2017-10-01T01:30:33.374Z,56.8
2017-10-01T01:31:34.478Z,56.7
2017-10-01T01:32:36.283Z,56.8
2017-10-01T01:33:38.410Z,56.7
2017-10-01T01:34:40.546Z,56.7
2017-10-01T01:35:42.004Z,56.7
2017-10-01T01:36:43.816Z,56.7
2017-10-01T01:37:45.612Z,56.7
2017-10-01T01:38:47.739Z,56.6
2017-10-01T01:39:49.866Z,57
2017-10-01T01:40:51.660Z,56.9
2017-10-01T01:41:53.787Z,56.8
2017-10-01T01:42:55.570Z,56.6
2017-10-01T01:43:57.024Z,56.8
2017-10-01T01:44:58.819Z,56.7
2017-10-01T01:46:00.942Z,56.6
2017-10-01T01:47:02.737Z,56.9
2017-10-01T01:48:04.509Z,56.7
2017-10-01T01:49:06.638Z,56.7
2017-10-01T01:50:08.764Z,56.6
2017-10-01T01:51:10.203Z,56.9
2017-10-01T01:52:11.971Z,56.6
2017-10-01T01:53:13.073Z,56.6
2017-10-01T01:54:14.867Z,56.7
2017-10-01T01:55:15.990Z,56.6
2017-10-01T01:56:17.444Z,56.6
2017-10-01T01:57:19.239Z,56.6
2017-10-01T01:58:20.697Z,56.6
2017-10-01T01:59:22.472Z,56.6
2017-10-01T02:00:24.596Z,56.7
2017-10-01T02:01:26.385Z,56.6
2017-10-01T02:02:28.178Z,56.7
2017-10-01T02:03:29.624Z,56.7
2017-10-01T02:04:31.437Z,57
2017-10-01T02:05:33.231Z,56.6
2017-10-01T02:06:35.359Z,56.9
2017-10-01T02:07:37.487Z,56.6
2017-10-01T02:08:38.935Z,56.7
2017-10-01T02:09:40.747Z,56.5
2017-10-01T02:10:41.845Z,56.7
2017-10-01T02:11:43.971Z,56.9
2017-10-01T02:12:45.774Z,56.6
2017-10-01T02:13:47.572Z,56.8
2017-10-01T02:14:49.359Z,56.5
2017-10-01T02:15:50.495Z,56.4
2017-10-01T02:16:52.623Z,56.5
2017-10-01T02:17:54.059Z,56.7
2017-10-01T02:18:55.853Z,56.5
2017-10-01T02:19:57.310Z,56.5
2017-10-01T02:20:58.745Z,56.7
2017-10-01T02:21:59.869Z,56.5
2017-10-01T02:23:01.638Z,56.4
2017-10-01T02:24:03.428Z,56.6
2017-10-01T02:25:04.531Z,56.6
2017-10-01T02:26:06.657Z,56.5
2017-10-01T02:27:08.451Z,56.5
2017-10-01T02:28:10.578Z,56.7
2017-10-01T02:29:12.033Z,56.6
2017-10-01T02:30:14.156Z,56.6
2017-10-01T02:31:15.946Z,56.5
2017-10-01T02:32:17.736Z,56.4
2017-10-01T02:33:19.526Z,56.4
2017-10-01T02:34:21.318Z,56.5
2017-10-01T02:35:22.750Z,56.3
2017-10-01T02:36:24.211Z,56.5
2017-10-01T02:37:26.342Z,56.9
2017-10-01T02:38:28.131Z,56.5
2017-10-01T02:39:29.923Z,56.5
2017-10-01T02:40:31.715Z,56.5
2017-10-01T02:41:33.556Z,56.5
2017-10-01T02:42:35.729Z,56.5
2017-10-01T02:43:37.522Z,56.5
2017-10-01T02:44:38.627Z,56.6
2017-10-01T02:45:40.753Z,56.8
2017-10-01T02:46:42.545Z,56.9
2017-10-01T02:47:44.354Z,56.5
2017-10-01T02:48:46.466Z,56.6
2017-10-01T02:49:47.902Z,56.4
2017-10-01T02:50:49.360Z,56.8
2017-10-01T02:51:50.794Z,56.5
2017-10-01T02:52:52.587Z,56.4
2017-10-01T02:53:54.378Z,56.3
2017-10-01T02:54:55.834Z,56.4
2017-10-01T02:55:57.609Z,56.4
2017-10-01T02:56:59.381Z,56.4
2017-10-01T02:58:01.179Z,56.4
2017-10-01T02:59:03.299Z,56.6
2017-10-01T03:00:05.068Z,56.6
2017-10-01T03:01:06.505Z,56.3
2017-10-01T03:02:07.941Z,56.3
2017-10-01T03:03:09.735Z,56.4
2017-10-01T03:04:11.859Z,56.4
2017-10-01T03:05:13.987Z,56.4
2017-10-01T03:06:15.777Z,56.4
2017-10-01T03:07:17.902Z,56.3
2017-10-01T03:08:19.360Z,56.3
2017-10-01T03:09:21.488Z,56.5
2017-10-01T03:10:23.278Z,56.2
2017-10-01T03:11:25.102Z,56.2
2017-10-01T03:12:27.245Z,56.2
2017-10-01T03:13:28.369Z,56.1
2017-10-01T03:14:29.824Z,56.3
2017-10-01T03:15:31.283Z,56.1
2017-10-01T03:16:32.384Z,56.2
2017-10-01T03:17:34.510Z,56.3
2017-10-01T03:18:36.303Z,56.3
2017-10-01T03:19:38.093Z,56.1
2017-10-01T03:20:39.525Z,56.4
2017-10-01T03:21:41.653Z,56.2
2017-10-01T03:22:43.109Z,56.4
2017-10-01T03:23:44.216Z,56
2017-10-01T03:24:45.676Z,56.2
2017-10-01T03:25:47.469Z,56
2017-10-01T03:26:48.908Z,56.1
2017-10-01T03:27:50.678Z,56.2
2017-10-01T03:28:52.804Z,56.2
2017-10-01T03:29:54.245Z,56
2017-10-01T03:30:56.372Z,56.1
2017-10-01T03:31:57.815Z,56.1
2017-10-01T03:32:59.940Z,56.2
2017-10-01T03:34:01.706Z,56.1
2017-10-01T03:35:03.143Z,56.1
2017-10-01T03:36:04.935Z,56.1
2017-10-01T03:37:06.724Z,56.2
2017-10-01T03:38:08.181Z,56
2017-10-01T03:39:09.652Z,55.9
2017-10-01T03:40:11.108Z,56.1
2017-10-01T03:41:12.882Z,55.7
2017-10-01T03:42:14.673Z,56.4
2017-10-01T03:43:16.113Z,55.8
2017-10-01T03:44:17.569Z,55.7
2017-10-01T03:45:19.378Z,56
2017-10-01T03:46:21.506Z,55.8
2017-10-01T03:47:23.636Z,55.7
2017-10-01T03:48:25.764Z,56.1
2017-10-01T03:49:27.536Z,55.7
2017-10-01T03:50:29.329Z,55.8
2017-10-01T03:51:30.786Z,55.6
2017-10-01T03:52:32.911Z,56
2017-10-01T03:53:34.705Z,55.7
2017-10-01T03:54:36.495Z,55.7
2017-10-01T03:55:38.287Z,55.8
2017-10-01T03:56:40.077Z,56.3
2017-10-01T03:57:41.510Z,55.7
2017-10-01T03:58:42.279Z,56
2017-10-01T03:59:43.740Z,55.8
2017-10-01T04:00:45.530Z,56
2017-10-01T04:01:46.965Z,55.7
2017-10-01T04:02:48.425Z,55.9
2017-10-01T04:03:50.216Z,55.7
2017-10-01T04:04:51.652Z,55.8
2017-10-01T04:05:53.115Z,55.8
2017-10-01T04:06:54.238Z,55.8
2017-10-01T04:07:56.030Z,55.8
2017-10-01T04:08:58.154Z,56.1
2017-10-01T04:10:00.280Z,56
2017-10-01T04:11:02.076Z,55.9
2017-10-01T04:12:03.532Z,55.8
2017-10-01T04:13:04.999Z,55.8
2017-10-01T04:14:06.457Z,55.8
2017-10-01T04:15:08.251Z,55.8
2017-10-01T04:16:10.023Z,55.8
2017-10-01T04:17:11.122Z,55.3
2017-10-01T04:18:12.222Z,56.1
2017-10-01T04:19:14.013Z,55.9
2017-10-01T04:20:15.469Z,55.5
2017-10-01T04:21:16.571Z,55.9
2017-10-01T04:22:18.026Z,55.9
2017-10-01T04:23:19.123Z,55.6
2017-10-01T04:24:20.579Z,55.4
2017-10-01T04:25:22.711Z,55.5
2017-10-01T04:26:24.836Z,55.9
2017-10-01T04:27:26.297Z,55.5
2017-10-01T04:28:28.078Z,55.5
2017-10-01T04:29:29.866Z,55.9
2017-10-01T04:30:31.656Z,55.5
2017-10-01T04:31:33.449Z,55.4
2017-10-01T04:32:34.892Z,55.9
2017-10-01T04:33:36.344Z,56.1
2017-10-01T04:34:38.136Z,55.5
2017-10-01T04:35:40.264Z,55.5
2017-10-01T04:36:42.057Z,55.5
2017-10-01T04:37:44.217Z,55.5
2017-10-01T04:38:45.987Z,55.5
2017-10-01T04:39:48.109Z,55.6
2017-10-01T04:40:50.236Z,55.5
2017-10-01T04:41:52.007Z,55.4
2017-10-01T04:42:53.443Z,55.4
2017-10-01T04:43:55.581Z,55.5
2017-10-01T04:44:57.018Z,55.6
2017-10-01T04:45:58.808Z,55.5
2017-10-01T04:47:00.602Z,55.5
2017-10-01T04:48:02.728Z,55.6
2017-10-01T04:49:04.853Z,55.7
2017-10-01T04:50:06.637Z,55.3
2017-10-01T04:51:07.402Z,55.5
2017-10-01T04:52:09.193Z,55.5
2017-10-01T04:53:11.320Z,55.5
2017-10-01T04:54:12.754Z,55.8
2017-10-01T04:55:14.237Z,55.5
2017-10-01T04:56:15.337Z,55.8
2017-10-01T04:57:17.462Z,55.6
2017-10-01T04:58:18.902Z,55.5
2017-10-01T04:59:21.025Z,55.5
2017-10-01T05:00:23.149Z,55.5
2017-10-01T05:01:24.941Z,55.5
2017-10-01T05:02:26.732Z,55.5
2017-10-01T05:03:28.189Z,55.5
2017-10-01T05:04:29.980Z,55.5
2017-10-01T05:05:31.773Z,55.5
2017-10-01T05:06:33.234Z,55.6
2017-10-01T05:07:35.368Z,55.5
2017-10-01T05:08:36.471Z,55.6
2017-10-01T05:09:37.957Z,55.5
2017-10-01T05:10:38.738Z,55.3
2017-10-01T05:11:39.845Z,55.5
2017-10-01T05:12:41.973Z,55.5
2017-10-01T05:13:43.432Z,55.5
2017-10-01T05:14:45.561Z,55.5
2017-10-01T05:15:47.351Z,55.4
2017-10-01T05:16:49.144Z,55.3
2017-10-01T05:17:50.246Z,55.5
2017-10-01T05:18:51.370Z,55.7
2017-10-01T05:19:53.185Z,55.5
2017-10-01T05:20:54.629Z,55.5
2017-10-01T05:21:56.419Z,55.4
2017-10-01T05:22:58.553Z,55.8
2017-10-01T05:24:00.681Z,55.8
2017-10-01T05:25:02.811Z,55.4
2017-10-01T05:26:04.607Z,55.1
2017-10-01T05:27:06.397Z,55.4
2017-10-01T05:28:08.189Z,55.3
2017-10-01T05:29:10.322Z,55.6
2017-10-01T05:30:12.092Z,55.5
2017-10-01T05:31:13.881Z,55.3
2017-10-01T05:32:15.317Z,55.6
2017-10-01T05:33:17.447Z,55.5
2017-10-01T05:34:19.241Z,55.1
2017-10-01T05:35:21.063Z,55.4
2017-10-01T05:36:22.854Z,55.2
2017-10-01T05:37:24.292Z,55.3
2017-10-01T05:38:26.062Z,55.1
2017-10-01T05:39:27.835Z,55.6
2017-10-01T05:40:29.963Z,55.2
2017-10-01T05:41:31.424Z,55.3
2017-10-01T05:42:33.212Z,55.3
2017-10-01T05:43:35.343Z,55.5
2017-10-01T05:44:37.133Z,55.5
2017-10-01T05:45:38.980Z,55.3
2017-10-01T05:46:40.773Z,55.3
2017-10-01T05:47:42.543Z,55.2
2017-10-01T05:48:44.334Z,55.3
2017-10-01T05:49:46.464Z,55.4
2017-10-01T05:50:47.901Z,55.4
2017-10-01T05:51:49.364Z,55.1
2017-10-01T05:52:50.824Z,55.1
2017-10-01T05:53:52.618Z,55.4
2017-10-01T05:54:54.749Z,55.2
2017-10-01T05:55:56.925Z,55.2
2017-10-01T05:56:59.052Z,55.5
2017-10-01T05:58:00.846Z,55.2
2017-10-01T05:59:02.638Z,55.3
2017-10-01T06:00:04.408Z,55.3
2017-10-01T06:01:06.538Z,55.5
2017-10-01T06:02:08.001Z,55.5
2017-10-01T06:03:09.772Z,55.2
2017-10-01T06:04:10.899Z,55.3
2017-10-01T06:05:12.671Z,55.2
2017-10-01T06:06:14.464Z,55.3
2017-10-01T06:07:16.235Z,55.4
2017-10-01T06:08:17.340Z,54.8
2017-10-01T06:09:18.453Z,55.1
2017-10-01T06:10:20.218Z,54.9
2017-10-01T06:11:22.017Z,55.4
2017-10-01T06:12:23.454Z,55
2017-10-01T06:13:24.889Z,55
2017-10-01T06:14:25.653Z,54.9
2017-10-01T06:15:27.781Z,54.9
2017-10-01T06:16:29.908Z,55
2017-10-01T06:17:31.011Z,54.9
2017-10-01T06:18:32.804Z,55.2
2017-10-01T06:19:34.266Z,55.3
2017-10-01T06:20:36.033Z,55.3
2017-10-01T06:21:37.828Z,55.9
2017-10-01T06:22:39.959Z,55.1
2017-10-01T06:23:41.751Z,55.1
2017-10-01T06:24:43.210Z,55.1
2017-10-01T06:25:45.336Z,54.9
2017-10-01T06:26:47.463Z,55.2
2017-10-01T06:27:49.260Z,55
2017-10-01T06:28:51.054Z,54.9
2017-10-01T06:29:52.849Z,54.6
2017-10-01T06:30:54.307Z,55.1
2017-10-01T06:31:55.743Z,54.9
2017-10-01T06:32:57.870Z,54.8
2017-10-01T06:33:59.307Z,54.7
2017-10-01T06:35:01.432Z,54.7
2017-10-01T06:36:02.867Z,54.8
2017-10-01T06:37:04.660Z,54.7
2017-10-01T06:38:06.453Z,54.9
2017-10-01T06:39:08.590Z,54.9
2017-10-01T06:40:10.054Z,54.8
2017-10-01T06:41:11.157Z,54.7
2017-10-01T06:42:12.951Z,54.8
2017-10-01T06:43:14.423Z,54.8
2017-10-01T06:44:16.543Z,54.8
2017-10-01T06:45:17.975Z,55
2017-10-01T06:46:19.153Z,55.2
2017-10-01T06:47:20.251Z,54.5
2017-10-01T06:48:21.713Z,55.2
2017-10-01T06:49:23.503Z,54.5
2017-10-01T06:50:25.295Z,54.7
2017-10-01T06:51:27.427Z,54.6
2017-10-01T06:52:29.221Z,54.8
2017-10-01T06:53:30.662Z,54.6
2017-10-01T06:54:32.097Z,54.7
2017-10-01T06:55:33.554Z,54.8
2017-10-01T06:56:34.991Z,54.7
2017-10-01T06:57:36.451Z,54.7
2017-10-01T06:58:38.577Z,54.6
2017-10-01T06:59:40.703Z,54.5
2017-10-01T07:00:42.147Z,54.4
2017-10-01T07:01:43.577Z,54.8
2017-10-01T07:02:45.704Z,54.7
2017-10-01T07:03:47.497Z,54.4
2017-10-01T07:04:49.266Z,54.6
2017-10-01T07:05:51.039Z,54.6
2017-10-01T07:06:52.832Z,54.6
2017-10-01T07:07:54.626Z,54.5
2017-10-01T07:08:56.751Z,54.6
2017-10-01T07:09:58.544Z,54.3
2017-10-01T07:11:00.317Z,54.4
2017-10-01T07:12:02.108Z,54.3
2017-10-01T07:13:03.899Z,54.4
2017-10-01T07:14:05.675Z,54.5
2017-10-01T07:15:06.797Z,54.3
2017-10-01T07:16:08.928Z,54.2
2017-10-01T07:17:10.697Z,54.2
2017-10-01T07:18:12.489Z,54.3
2017-10-01T07:19:13.945Z,54.6
2017-10-01T07:20:16.075Z,54.2
2017-10-01T07:21:17.513Z,54.2
2017-10-01T07:22:18.970Z,54.2
2017-10-01T07:23:21.094Z,54.3
2017-10-01T07:24:22.553Z,54.2
2017-10-01T07:25:24.344Z,54.5
2017-10-01T07:26:25.470Z,54.2
2017-10-01T07:27:26.930Z,53.9
2017-10-01T07:28:28.032Z,54
2017-10-01T07:29:29.133Z,54.4
2017-10-01T07:30:31.263Z,54.1
2017-10-01T07:31:33.392Z,54
2017-10-01T07:32:35.185Z,53.8
2017-10-01T07:33:36.958Z,53.9
2017-10-01T07:34:38.751Z,54.1
2017-10-01T07:35:40.546Z,53.9
2017-10-01T07:36:41.985Z,53.8
2017-10-01T07:37:43.777Z,54.1
2017-10-01T07:38:45.904Z,54
2017-10-01T07:39:48.031Z,53.8
2017-10-01T07:40:49.465Z,53.9
2017-10-01T07:41:51.237Z,54
2017-10-01T07:42:52.339Z,54.3
2017-10-01T07:43:54.465Z,53.8
2017-10-01T07:44:56.244Z,53.8
2017-10-01T07:45:58.032Z,53.8
2017-10-01T07:46:58.803Z,54
2017-10-01T07:48:00.263Z,53.8
2017-10-01T07:49:01.723Z,53.8
2017-10-01T07:50:03.853Z,54
2017-10-01T07:51:05.987Z,53.6
2017-10-01T07:52:07.420Z,53.8
2017-10-01T07:53:08.859Z,53.7
2017-10-01T07:54:10.652Z,53.6
2017-10-01T07:55:12.779Z,53.7
2017-10-01T07:56:14.910Z,54.1
2017-10-01T07:57:17.040Z,53.8
2017-10-01T07:58:18.473Z,53.6
2017-10-01T07:59:20.248Z,53.8
2017-10-01T08:00:21.683Z,53.4
2017-10-01T08:01:22.784Z,53.8
2017-10-01T08:02:24.223Z,54
2017-10-01T08:03:25.328Z,53.4
2017-10-01T08:04:27.102Z,53.6
2017-10-01T08:05:28.203Z,53.4
2017-10-01T08:06:30.330Z,53.5
2017-10-01T08:07:32.126Z,53.5
2017-10-01T08:08:33.921Z,53.5
2017-10-01T08:09:35.357Z,53.2
2017-10-01T08:10:36.821Z,53.4
2017-10-01T08:11:38.590Z,53.7
2017-10-01T08:12:40.384Z,53.4
2017-10-01T08:13:42.153Z,53.3
2017-10-01T08:14:43.923Z,53.4
2017-10-01T08:15:45.359Z,53.2
2017-10-01T08:16:47.488Z,54.1
2017-10-01T08:17:48.924Z,53.4
2017-10-01T08:18:50.719Z,53
2017-10-01T08:19:52.154Z,53.1
2017-10-01T08:20:52.926Z,53.2
2017-10-01T08:21:55.106Z,53.6
2017-10-01T08:22:56.899Z,53.1
2017-10-01T08:23:58.668Z,53.3
2017-10-01T08:25:00.796Z,53.4
2017-10-01T08:26:02.571Z,53.4
2017-10-01T08:27:04.358Z,53.3
2017-10-01T08:28:05.819Z,53.3
2017-10-01T08:29:07.950Z,52.9
2017-10-01T08:30:10.078Z,53.4
2017-10-01T08:31:11.873Z,53.4
2017-10-01T08:32:13.332Z,53.2
2017-10-01T08:33:15.123Z,53.5
2017-10-01T08:34:16.924Z,53.1
2017-10-01T08:35:18.718Z,53.2
2017-10-01T08:36:19.817Z,53.2
2017-10-01T08:37:21.275Z,53.2
2017-10-01T08:38:23.071Z,53.1
2017-10-01T08:39:24.508Z,53.2
2017-10-01T08:40:26.301Z,53
2017-10-01T08:41:28.078Z,53.5
2017-10-01T08:42:29.875Z,53.1
2017-10-01T08:43:32.001Z,53
2017-10-01T08:44:33.458Z,53
2017-10-01T08:45:35.589Z,53.1
2017-10-01T08:46:37.055Z,53.1
2017-10-01T08:47:38.838Z,53.1
2017-10-01T08:48:39.606Z,53.6
2017-10-01T08:49:41.407Z,53
2017-10-01T08:50:43.205Z,53
2017-10-01T08:51:44.639Z,53
2017-10-01T08:52:46.077Z,53.1
2017-10-01T08:53:47.852Z,52.9
2017-10-01T08:54:49.624Z,53
2017-10-01T08:55:51.420Z,53.1
2017-10-01T08:56:53.552Z,52.9
2017-10-01T08:57:55.010Z,53.1
2017-10-01T08:58:56.806Z,53.3
2017-10-01T08:59:58.601Z,53
2017-10-01T09:01:00.060Z,53.1
2017-10-01T09:02:01.502Z,53.2
2017-10-01T09:03:03.300Z,53.5
2017-10-01T09:04:05.096Z,53.1
2017-10-01T09:05:07.222Z,53
2017-10-01T09:06:08.691Z,53
2017-10-01T09:07:10.121Z,53.1
2017-10-01T09:08:12.252Z,53
2017-10-01T09:09:13.695Z,52.8
2017-10-01T09:10:14.795Z,52.9
2017-10-01T09:11:16.232Z,52.9
2017-10-01T09:12:17.690Z,53
2017-10-01T09:13:19.125Z,53
2017-10-01T09:14:21.254Z,52.7
2017-10-01T09:15:23.049Z,52.7
2017-10-01T09:16:25.176Z,52.7
2017-10-01T09:17:26.612Z,52.7
2017-10-01T09:18:28.404Z,53
2017-10-01T09:19:29.530Z,53
2017-10-01T09:20:30.642Z,53.3
2017-10-01T09:21:32.777Z,52.9
2017-10-01T09:22:34.235Z,53
2017-10-01T09:23:36.366Z,52.9
2017-10-01T09:24:38.140Z,52.9
2017-10-01T09:25:39.579Z,53
2017-10-01T09:26:41.044Z,52.9
2017-10-01T09:27:42.142Z,52.9
2017-10-01T09:28:43.583Z,53
2017-10-01T09:29:45.024Z,53.1
2017-10-01T09:30:47.151Z,53
2017-10-01T09:31:48.589Z,53.4
2017-10-01T09:32:50.718Z,53.1
2017-10-01T09:33:52.178Z,52.9
2017-10-01T09:34:54.319Z,53.2
2017-10-01T09:35:55.760Z,53.5
2017-10-01T09:36:57.556Z,53.1
2017-10-01T09:37:59.325Z,53.1
2017-10-01T09:39:01.121Z,53.1
2017-10-01T09:40:03.257Z,53
2017-10-01T09:41:04.715Z,53
2017-10-01T09:42:06.510Z,53.1
2017-10-01T09:43:07.740Z,53.1
2017-10-01T09:44:09.866Z,53
2017-10-01T09:45:11.308Z,53.5
2017-10-01T09:46:13.100Z,53.4
2017-10-01T09:47:15.228Z,53.1
2017-10-01T09:48:17.025Z,53.1
2017-10-01T09:49:18.132Z,53.1
2017-10-01T09:50:19.593Z,53.2
2017-10-01T09:51:21.383Z,53.5
2017-10-01T09:52:23.174Z,53.1
2017-10-01T09:53:24.968Z,53.1
2017-10-01T09:54:26.430Z,53.1
2017-10-01T09:55:28.558Z,53
2017-10-01T09:56:30.688Z,53.4
2017-10-01T09:57:32.581Z,53.4
2017-10-01T09:58:34.354Z,53.1
2017-10-01T09:59:35.795Z,53
2017-10-01T10:00:37.569Z,53
2017-10-01T10:01:38.672Z,52.9
2017-10-01T10:02:40.519Z,53.1
2017-10-01T10:03:41.974Z,53.1
2017-10-01T10:04:43.084Z,53.1
2017-10-01T10:05:44.189Z,53.1
2017-10-01T10:06:46.319Z,53
2017-10-01T10:07:48.094Z,53.1
2017-10-01T10:08:49.894Z,53.5
2017-10-01T10:09:51.687Z,53.4
2017-10-01T10:10:53.480Z,53.1
2017-10-01T10:11:54.921Z,53.1
2017-10-01T10:12:55.688Z,53.7
2017-10-01T10:13:57.148Z,53.1
2017-10-01T10:14:58.944Z,53
2017-10-01T10:16:00.389Z,53
2017-10-01T10:17:01.821Z,53.1
2017-10-01T10:18:03.947Z,53.1
2017-10-01T10:19:06.077Z,53.1
2017-10-01T10:20:08.209Z,53.1
2017-10-01T10:21:09.668Z,52.9
2017-10-01T10:22:10.771Z,53
2017-10-01T10:23:12.005Z,52.9
2017-10-01T10:24:13.460Z,53.5
2017-10-01T10:25:15.231Z,53.2
2017-10-01T10:26:17.024Z,53.7
2017-10-01T10:27:18.461Z,53.3
2017-10-01T10:28:20.254Z,53.4
2017-10-01T10:29:22.049Z,53.1
2017-10-01T10:30:23.854Z,53.4
2017-10-01T10:31:25.287Z,53.3
2017-10-01T10:32:26.746Z,53.2
2017-10-01T10:33:28.538Z,53.4
2017-10-01T10:34:30.337Z,53.4
2017-10-01T10:35:32.133Z,53.2
2017-10-01T10:36:33.929Z,53.4
2017-10-01T10:37:35.723Z,53.3
2017-10-01T10:38:37.524Z,53.2
2017-10-01T10:39:38.630Z,53.2
2017-10-01T10:40:40.761Z,53.2
2017-10-01T10:41:42.550Z,53.2
2017-10-01T10:42:43.655Z,53.2
2017-10-01T10:43:45.446Z,53.2
2017-10-01T10:44:46.886Z,53.2
2017-10-01T10:45:48.327Z,53.2
2017-10-01T10:46:50.119Z,53.2
2017-10-01T10:47:51.582Z,53.2
2017-10-01T10:48:53.026Z,53.2
2017-10-01T10:49:54.824Z,53.2
2017-10-01T10:50:56.616Z,53.5
2017-10-01T10:51:58.052Z,53.1
2017-10-01T10:52:59.511Z,53.1
2017-10-01T10:54:01.303Z,53
2017-10-01T10:55:02.764Z,53.4
2017-10-01T10:56:04.197Z,53.8
2017-10-01T10:57:05.658Z,53.4
2017-10-01T10:58:06.757Z,53.1
2017-10-01T10:59:08.200Z,53.9
2017-10-01T11:00:09.637Z,53.4
2017-10-01T11:01:11.072Z,53.4
2017-10-01T11:02:13.202Z,53.5
2017-10-01T11:03:14.997Z,53.1
2017-10-01T11:04:17.124Z,53.1
2017-10-01T11:05:18.919Z,53.9
2017-10-01T11:06:21.047Z,53.6
2017-10-01T11:07:22.841Z,53.1
2017-10-01T11:08:24.280Z,53.6
2017-10-01T11:09:26.406Z,53.6
2017-10-01T11:10:27.842Z,53.5
2017-10-01T11:11:29.970Z,53.3
2017-10-01T11:12:31.435Z,53.4
2017-10-01T11:13:32.972Z,53.4
2017-10-01T11:14:34.768Z,54.1
2017-10-01T11:15:36.565Z,53.4
2017-10-01T11:16:38.331Z,53.4
2017-10-01T11:17:40.127Z,53.5
2017-10-01T11:18:41.590Z,53.3
2017-10-01T11:19:43.029Z,53.5
2017-10-01T11:20:43.794Z,53.4
2017-10-01T11:21:45.588Z,53.4
2017-10-01T11:22:47.381Z,53.3
2017-10-01T11:23:48.844Z,53.5
2017-10-01T11:24:50.309Z,53.5
2017-10-01T11:25:52.089Z,53.4
2017-10-01T11:26:54.221Z,53.7
2017-10-01T11:27:55.662Z,53.5
2017-10-01T11:28:57.788Z,54
2017-10-01T11:29:59.247Z,53.3
2017-10-01T11:31:01.379Z,53.7
2017-10-01T11:32:03.173Z,53.3
2017-10-01T11:33:04.973Z,52.9
2017-10-01T11:34:07.102Z,53.4
2017-10-01T11:35:08.542Z,53.5
2017-10-01T11:36:10.334Z,53.5
2017-10-01T11:37:12.128Z,53.4
2017-10-01T11:38:13.928Z,53.3
2017-10-01T11:39:15.370Z,53.4
2017-10-01T11:40:17.162Z,53.4
2017-10-01T11:41:18.605Z,53.9
2017-10-01T11:42:20.376Z,53.1
2017-10-01T11:43:22.503Z,53.1
2017-10-01T11:44:24.298Z,53.1
2017-10-01T11:45:26.091Z,53.2
2017-10-01T11:46:27.553Z,53.2
2017-10-01T11:47:28.672Z,53.1
2017-10-01T11:48:30.465Z,53.2
2017-10-01T11:49:32.240Z,53.3
2017-10-01T11:50:34.366Z,53.3
2017-10-01T11:51:36.159Z,53.4
2017-10-01T11:52:37.932Z,53.2
2017-10-01T11:53:39.728Z,53.4
2017-10-01T11:54:41.189Z,53.4
2017-10-01T11:55:42.627Z,53.3
2017-10-01T11:56:43.751Z,53.2
2017-10-01T11:57:45.212Z,53.3
2017-10-01T11:58:47.008Z,53.2
2017-10-01T11:59:48.444Z,53.2
2017-10-01T12:00:50.571Z,53.2
2017-10-01T12:01:52.341Z,53.2
2017-10-01T12:02:54.118Z,53.2
2017-10-01T12:03:55.560Z,53.2
2017-10-01T12:04:57.358Z,53.2
2017-10-01T12:05:59.157Z,53.3
2017-10-01T12:07:01.287Z,53.3
2017-10-01T12:08:03.414Z,53.2
2017-10-01T12:09:05.220Z,53.2
2017-10-01T12:10:06.995Z,53.3
2017-10-01T12:11:08.791Z,53.1
2017-10-01T12:12:10.920Z,53.1
2017-10-01T12:13:13.050Z,53.1
2017-10-01T12:14:14.851Z,53.7
2017-10-01T12:15:16.650Z,53.2
2017-10-01T12:16:18.441Z,53.5
2017-10-01T12:17:19.902Z,53.2
2017-10-01T12:18:21.007Z,53.3
2017-10-01T12:19:22.481Z,53.2
2017-10-01T12:20:24.272Z,53.2
2017-10-01T12:21:26.405Z,53.2
2017-10-01T12:22:28.539Z,53.1
2017-10-01T12:23:30.668Z,53.1
2017-10-01T12:24:31.773Z,53.1
2017-10-01T12:25:33.563Z,53.1
2017-10-01T12:26:35.004Z,53.2
2017-10-01T12:27:36.441Z,53.2
2017-10-01T12:28:37.906Z,53.2
2017-10-01T12:29:39.701Z,53.2
2017-10-01T12:30:41.499Z,53.2
2017-10-01T12:31:43.270Z,53.2
2017-10-01T12:32:45.400Z,53.2
2017-10-01T12:33:47.525Z,53.2
2017-10-01T12:34:49.654Z,53.3
2017-10-01T12:35:51.782Z,53.2
2017-10-01T12:36:53.219Z,53.3
2017-10-01T12:37:54.684Z,53.2
2017-10-01T12:38:56.122Z,53.2
2017-10-01T12:39:57.613Z,53.4
2017-10-01T12:40:59.745Z,53.2
2017-10-01T12:42:01.517Z,53.7
2017-10-01T12:43:02.974Z,53.2
2017-10-01T12:44:04.083Z,53.3
2017-10-01T12:45:06.214Z,53.3
2017-10-01T12:46:07.985Z,53.3
2017-10-01T12:47:09.780Z,53.2
2017-10-01T12:48:11.910Z,53.7
2017-10-01T12:49:13.043Z,53.2
2017-10-01T12:50:14.506Z,53.3
2017-10-01T12:51:16.298Z,53.3
2017-10-01T12:52:17.764Z,53.4
2017-10-01T12:53:19.533Z,53.3
2017-10-01T12:54:21.325Z,53.4
2017-10-01T12:55:22.787Z,53.4
2017-10-01T12:56:23.900Z,53.5
2017-10-01T12:57:25.671Z,53.3
2017-10-01T12:58:27.465Z,53.3
2017-10-01T12:59:29.259Z,53.3
2017-10-01T13:00:31.387Z,53.2
2017-10-01T13:01:32.510Z,53.2
2017-10-01T13:02:33.966Z,53.2
2017-10-01T13:03:36.094Z,53.2
2017-10-01T13:04:37.550Z,53.2
2017-10-01T13:05:38.652Z,53.2
2017-10-01T13:06:40.449Z,53.5
2017-10-01T13:07:41.907Z,53.5
2017-10-01T13:08:43.367Z,53.1
2017-10-01T13:09:44.829Z,53.8
2017-10-01T13:10:46.771Z,53.2
2017-10-01T13:11:48.229Z,53.7
2017-10-01T13:12:50.023Z,53.1
2017-10-01T13:13:51.482Z,53.3
2017-10-01T13:14:53.281Z,53.3
2017-10-01T13:15:55.051Z,53.3
2017-10-01T13:16:56.847Z,53.2
2017-10-01T13:17:58.977Z,53.2
2017-10-01T13:19:00.751Z,53.2
2017-10-01T13:20:02.555Z,53.2
2017-10-01T13:21:04.341Z,53.2
2017-10-01T13:22:05.779Z,53.2
2017-10-01T13:23:06.880Z,53.1
2017-10-01T13:24:08.656Z,53.3
2017-10-01T13:25:10.503Z,53.3
2017-10-01T13:26:12.279Z,53.5
2017-10-01T13:27:13.740Z,53.4
2017-10-01T13:28:15.181Z,53.6
2017-10-01T13:29:16.648Z,53.4
2017-10-01T13:30:18.439Z,53.3
2017-10-01T13:31:19.901Z,53.4
2017-10-01T13:32:21.338Z,53.4
2017-10-01T13:33:23.465Z,53.4
2017-10-01T13:34:25.263Z,53.2
2017-10-01T13:35:27.396Z,53.3
2017-10-01T13:36:29.523Z,53.5
2017-10-01T13:37:30.968Z,53.3
2017-10-01T13:38:33.095Z,53.3
2017-10-01T13:39:34.533Z,53.5
2017-10-01T13:40:35.994Z,53.3
2017-10-01T13:41:37.450Z,53.3
2017-10-01T13:42:38.888Z,53.5
2017-10-01T13:43:41.023Z,53.4
2017-10-01T13:44:43.148Z,53.4
2017-10-01T13:45:45.279Z,53.2
2017-10-01T13:46:47.406Z,53.2
2017-10-01T13:47:49.177Z,53.3